Flight Track Log - Related Links

Times and Time Zones

All times are in EDT time to prevent confusion due to time zone crossing. See the SQH87 flight status page for this flight to view local times or setup timezone preferences in your user account.

Time Position Orientation Groundspeed Altitude Reporting Facility
EDT Latitude Longitude Course Direction KTS MPH feet Rate Location/Type
Thu 08:45:17 AM 34.4097 -93.0961 180° South 251 289 4,000  Level Memphis Center
Thu 08:46:17 AM 34.3767 -93.0900 171° South 178 205 5,500 1,550 Climbing Memphis Center
Thu 08:47:17 AM 34.3433 -93.0814 168° South 151 174 7,100 1,550 Climbing Memphis Center
Thu 08:48:17 AM 34.3081 -93.0803 179° South 138 159 8,600 1,400 Climbing Memphis Center
Thu 08:49:17 AM 34.2686 -93.0692 167° South 138 159 9,900 800 Climbing Memphis Center
Thu 08:50:17 AM 34.2208 -93.0575 169° South 150 173 10,200 -300 Climbing Memphis Center
Thu 08:51:17 AM 34.1753 -93.0386 161° South 170 196 9,300 -900 Descending Memphis Center
Thu 08:52:17 AM 34.1358 -93.0247 164° South 170 196 8,400 -1,213 Descending Memphis Center
Thu 08:54:15 AM 34.0564 -93.0089 171° South 141 162 5,700 -1,146 Descending Fort Worth Center
Thu 08:55:15 AM 34.0164 -92.9961 165° South 147 169 5,000 -350 Descending Fort Worth Center
Thu 08:56:15 AM 33.9783 -92.9853 167° South 140 161 5,000  Level Fort Worth Center
Thu 08:57:15 AM 33.9383 -92.9750 168° South 140 161 5,000  Level Fort Worth Center
Thu 08:58:15 AM 33.9028 -92.9692 172° South 140 161 5,000  Level Fort Worth Center
Thu 08:59:15 AM 33.8606 -92.9589 169° South 146 168 5,000  Level Fort Worth Center
Thu 09:00:15 AM 33.8144 -92.9486 170° South 153 176 5,000  Level Fort Worth Center
Thu 09:01:15 AM 33.7722 -92.9383 169° South 159 183 5,000  Level Fort Worth Center
Thu 09:02:15 AM 33.7322 -92.9306 171° South 159 183 5,000  Level Fort Worth Center
Thu 09:03:15 AM 33.6903 -92.9200 168° South 159 183 5,000 -250 Level Fort Worth Center
Thu 09:04:15 AM 33.6503 -92.9097 168° South 159 183 4,500 -750 Descending Fort Worth Center
Thu 09:05:15 AM 33.6186 -92.9039 171° South 141 162 3,500 -1,050 Descending Fort Worth Center
Thu 09:06:15 AM 33.5869 -92.8956 168° South 129 148 2,400 -800 Descending Fort Worth Center
Thu 09:07:15 AM 33.5514 -92.8872 169° South 123 142 1,900 -200 Descending Fort Worth Center
Thu 09:08:15 AM 33.5156 -92.8792 169° South 130 150 2,000  Climbing Fort Worth Center
Thu 09:09:15 AM 33.4758 -92.8739 174° South 135 155 1,900 -50 Descending Fort Worth Center
Thu 09:10:15 AM 33.4397 -92.8606 163° South 135 155 1,900  Level Fort Worth Center
Thu 09:11:15 AM 33.4019 -92.8528 170° South 140 161 1,900  Level Fort Worth Center
Thu 09:12:15 AM 33.3642 -92.8447 170° South 140 161 1,900  Level Fort Worth Center

Login

Don't have an account? Register now (free) for customized features, flight alerts, and more!